Time;durP1;ratioP1;P1;durP2;ratioP2;P2;SDS_P1;SDS_P2;PMS_P1;PMS_P2;Temp;Humidity;BMP_temperature;BMP_pressure;BME280_temperature;BME280_humidity;BME280_pressure;Samples;Min_cycle;Max_cycle;Signal;HPM_P1;HPM_P2
2021/10/25 04:33:05;;;;;;;0.60;0.60;;;4.00;99.90;;;;;;4483719;32;77876;-63
2021/10/25 04:35:31;;;;;;;0.40;0.40;;;3.90;99.90;;;;;;4470044;32;20096;-64
2021/10/25 04:37:58;;;;;;;3.92;0.82;;;3.80;99.90;;;;;;4471823;32;20089;-64
2021/10/25 04:40:24;;;;;;;5.35;1.33;;;3.80;99.90;;;;;;4472183;32;20060;-64
2021/10/25 04:42:51;;;;;;;0.47;0.47;;;3.80;99.90;;;;;;4471531;32;20057;-64
2021/10/25 04:45:18;;;;;;;0.95;0.95;;;3.70;99.90;;;;;;4471219;32;20669;-64
2021/10/25 04:47:44;;;;;;;1.45;0.98;;;3.60;99.90;;;;;;4478375;32;20110;-64
2021/10/25 04:50:09;;;;;;;0.85;0.85;;;3.60;99.90;;;;;;4484343;32;20079;-64
2021/10/25 04:52:35;;;;;;;0.43;0.43;;;3.70;99.90;;;;;;4477319;32;20072;-64
2021/10/25 04:55:00;;;;;;;0.82;0.65;;;3.70;99.90;;;;;;4470733;32;20505;-64
2021/10/25 04:57:26;;;;;;;0.52;0.52;;;3.70;99.90;;;;;;4467133;32;20088;-64
2021/10/25 04:59:52;;;;;;;0.60;0.60;;;3.80;99.90;;;;;;4464607;32;20057;-64
2021/10/25 05:02:17;;;;;;;0.77;0.77;;;3.80;99.90;;;;;;4458129;32;20119;-64
2021/10/25 05:04:43;;;;;;;0.52;0.52;;;3.90;99.90;;;;;;4460697;32;20188;-65
2021/10/25 05:07:08;;;;;;;1.65;1.20;;;3.80;99.90;;;;;;4453375;32;20073;-64
2021/10/25 05:09:34;;;;;;;0.88;0.65;;;3.80;99.90;;;;;;4463811;32;20068;-64
2021/10/25 05:12:00;;;;;;;1.02;1.02;;;3.90;99.90;;;;;;4464743;32;20203;-64
2021/10/25 05:14:25;;;;;;;0.50;0.50;;;3.90;99.90;;;;;;4459153;32;20127;-64
2021/10/25 05:16:51;;;;;;;0.70;0.70;;;3.80;99.90;;;;;;4474400;32;20187;-64
2021/10/25 05:19:17;;;;;;;0.47;0.47;;;3.80;99.90;;;;;;4400787;32;20163;-64
2021/10/25 05:21:42;;;;;;;0.50;0.50;;;3.80;99.90;;;;;;4459871;32;20053;-65
2021/10/25 05:24:09;;;;;;;0.60;0.60;;;3.80;99.90;;;;;;4470148;32;20128;-65
2021/10/25 05:26:36;;;;;;;0.43;0.43;;;3.80;99.90;;;;;;4463757;32;20085;-64
2021/10/25 05:29:02;;;;;;;0.52;0.52;;;3.80;99.90;;;;;;4462576;32;20415;-65
2021/10/25 05:31:32;;;;;;;0.40;0.40;;;3.70;99.90;;;;;;4452963;32;20576;-64
2021/10/25 05:33:58;;;;;;;0.75;0.75;;;3.70;99.90;;;;;;4459536;32;20089;-64
2021/10/25 05:36:24;;;;;;;0.70;0.70;;;3.80;99.90;;;;;;4452712;32;20450;-64
2021/10/25 05:38:51;;;;;;;2.70;1.00;;;3.80;99.90;;;;;;4450196;32;20105;-65
2021/10/25 05:41:18;;;;;;;0.65;0.65;;;3.80;99.90;;;;;;4451111;32;20090;-64
2021/10/25 05:43:43;;;;;;;0.40;0.40;;;3.80;99.90;;;;;;4441396;32;20131;-65
2021/10/25 05:46:09;;;;;;;1.10;1.02;;;3.70;99.90;;;;;;4439687;32;22359;-65
2021/10/25 05:48:34;;;;;;;0.80;0.80;;;3.80;99.90;;;;;;4442061;32;20549;-67
2021/10/25 05:51:02;;;;;;;1.90;0.88;;;3.70;99.90;;;;;;4445624;32;20077;-66
2021/10/25 05:53:28;;;;;;;0.55;0.55;;;3.80;99.90;;;;;;4441167;32;20141;-66
2021/10/25 05:55:54;;;;;;;0.55;0.55;;;3.90;99.90;;;;;;4442943;32;20130;-64
2021/10/25 05:58:21;;;;;;;2.53;1.23;;;3.90;99.90;;;;;;4431529;32;20130;-64
2021/10/25 06:00:54;;;;;;;0.88;0.57;;;3.90;99.90;;;;;;4426504;32;20073;-62
2021/10/25 06:03:23;;;;;;;0.80;0.80;;;3.90;99.90;;;;;;4439308;32;20073;-65
2021/10/25 06:05:50;;;;;;;0.68;0.68;;;3.90;99.90;;;;;;4435702;32;20687;-65
2021/10/25 06:08:16;;;;;;;2.33;1.95;;;3.90;99.90;;;;;;4435039;32;20462;-65
2021/10/25 06:10:42;;;;;;;1.10;0.85;;;3.90;99.90;;;;;;4435880;32;20065;-64
2021/10/25 06:13:10;;;;;;;0.52;0.50;;;3.90;99.90;;;;;;4432573;32;20184;-66
2021/10/25 06:15:41;;;;;;;0.77;0.77;;;3.90;99.90;;;;;;4433141;32;20128;-62
2021/10/25 06:18:08;;;;;;;1.40;1.25;;;3.90;99.90;;;;;;4437334;32;20062;-61
2021/10/25 06:20:37;;;;;;;2.37;0.80;;;3.90;99.90;;;;;;4428040;32;20073;-61
2021/10/25 06:23:12;;;;;;;0.73;0.68;;;3.90;99.90;;;;;;4439558;32;20065;-63
2021/10/25 06:25:40;;;;;;;0.47;0.47;;;3.90;99.90;;;;;;4432658;32;20166;-65
2021/10/25 06:28:06;;;;;;;0.60;0.60;;;4.00;99.90;;;;;;4429970;32;20096;-65
2021/10/25 06:30:33;;;;;;;0.40;0.40;;;4.20;99.90;;;;;;4425244;32;20582;-65
2021/10/25 06:33:01;;;;;;;0.77;0.77;;;4.20;99.90;;;;;;4433115;32;20486;-65
2021/10/25 06:35:27;;;;;;;0.57;0.57;;;4.30;99.90;;;;;;4436086;32;20080;-65
2021/10/25 06:38:00;;;;;;;0.68;0.68;;;4.30;99.90;;;;;;4433869;32;20467;-65
2021/10/25 06:40:28;;;;;;;0.68;0.68;;;4.40;99.90;;;;;;4435844;32;20097;-64
2021/10/25 06:42:53;;;;;;;0.68;0.68;;;4.40;99.90;;;;;;4435862;32;20061;-64
2021/10/25 06:45:21;;;;;;;0.80;0.80;;;4.40;99.90;;;;;;4435105;32;20068;-65
2021/10/25 06:47:48;;;;;;;1.02;1.02;;;4.40;99.90;;;;;;4433678;32;20072;-65
2021/10/25 06:50:16;;;;;;;0.50;0.50;;;4.50;99.90;;;;;;4438303;32;20066;-65
2021/10/25 06:52:42;;;;;;;0.55;0.55;;;4.50;99.90;;;;;;4430478;32;20396;-65
2021/10/25 06:55:08;;;;;;;0.70;0.70;;;4.60;99.90;;;;;;4433959;32;20467;-65
2021/10/25 06:57:34;;;;;;;0.70;0.70;;;4.60;99.90;;;;;;4429916;32;20089;-65
2021/10/25 07:00:01;;;;;;;0.52;0.52;;;4.60;99.90;;;;;;4430928;32;20506;-65
2021/10/25 07:02:27;;;;;;;0.75;0.75;;;4.80;99.90;;;;;;4438665;32;20159;-65
2021/10/25 07:04:53;;;;;;;2.90;1.12;;;4.80;99.90;;;;;;4434230;32;20061;-65
2021/10/25 07:07:23;;;;;;;0.32;0.32;;;5.00;99.90;;;;;;4431991;32;20100;-65
2021/10/25 07:09:48;;;;;;;0.70;0.70;;;5.00;99.90;;;;;;4430316;32;20080;-66
2021/10/25 07:12:14;;;;;;;0.55;0.55;;;5.10;99.90;;;;;;4438419;32;20081;-66
2021/10/25 07:14:41;;;;;;;0.40;0.40;;;5.20;99.90;;;;;;4433483;32;20073;-65
2021/10/25 07:17:16;;;;;;;0.95;0.95;;;5.30;99.90;;;;;;4437634;32;20142;-66
2021/10/25 07:20:59;;;;;;;0.50;0.50;;;5.30;99.90;;;;;;4428376;32;20515;-66
2021/10/25 07:23:42;;;;;;;1.48;1.23;;;5.30;99.90;;;;;;4429851;32;20135;-65
2021/10/25 07:28:12;;;;;;;10.10;1.62;;;5.60;99.90;;;;;;4430737;32;20209;-66
2021/10/25 08:02:28;;;;;;;1.35;1.23;;;6.80;99.90;;;;;;4426714;32;20090;-65
2021/10/25 08:04:12;;;;;;;0.68;0.68;;;6.90;99.90;;;;;;4427832;32;20082;-65
2021/10/25 08:06:40;;;;;;;0.40;0.40;;;7.10;99.90;;;;;;4427327;32;20515;-65
2021/10/25 08:09:23;;;;;;;1.30;1.20;;;7.10;99.90;;;;;;4432071;32;20077;-65
2021/10/25 08:11:53;;;;;;;0.40;0.40;;;7.10;99.90;;;;;;4423337;32;20563;-65
2021/10/25 08:14:19;;;;;;;0.65;0.65;;;7.10;99.90;;;;;;4429447;32;20077;-65
2021/10/25 08:16:48;;;;;;;0.50;0.50;;;7.30;99.90;;;;;;4431940;32;20620;-67
2021/10/25 08:19:24;;;;;;;0.70;0.70;;;7.30;99.90;;;;;;4427898;32;20064;-66
2021/10/25 08:21:52;;;;;;;0.93;0.90;;;7.40;99.90;;;;;;4428214;32;20570;-66
2021/10/25 08:24:18;;;;;;;0.40;0.40;;;7.40;99.90;;;;;;4430529;32;20085;-65
2021/10/25 08:26:45;;;;;;;0.40;0.40;;;7.60;99.90;;;;;;4433108;32;20094;-66
2021/10/25 08:29:11;;;;;;;4.18;1.00;;;7.70;99.90;;;;;;4432162;32;20658;-65
2021/10/25 08:31:38;;;;;;;0.40;0.40;;;7.80;99.90;;;;;;4433561;32;20073;-65
2021/10/25 08:35:21;;;;;;;3.30;0.82;;;7.70;99.90;;;;;;4427738;32;20630;-66
2021/10/25 08:39:53;;;;;;;0.70;0.70;;;7.80;99.90;;;;;;4425901;32;20061;-64
2021/10/25 08:42:23;;;;;;;3.90;1.20;;;7.80;99.90;;;;;;4424239;32;20131;-64
2021/10/25 08:44:54;;;;;;;2.40;1.05;;;7.90;99.90;;;;;;4429427;32;20077;-65
2021/10/25 08:47:24;;;;;;;0.40;0.40;;;8.00;99.90;;;;;;4430693;32;20093;-64
2021/10/25 08:49:50;;;;;;;0.37;0.37;;;8.00;99.90;;;;;;4435493;32;20085;-64
2021/10/25 08:52:22;;;;;;;0.30;0.30;;;8.20;99.90;;;;;;4433852;32;20131;-65
2021/10/25 08:54:50;;;;;;;0.50;0.50;;;8.20;99.90;;;;;;4422777;32;20097;-68
2021/10/25 08:57:17;;;;;;;0.40;0.40;;;8.20;99.90;;;;;;4426593;32;20692;-65
2021/10/25 08:59:55;;;;;;;1.05;0.73;;;8.30;99.90;;;;;;4428419;32;20054;-61
2021/10/25 09:02:20;;;;;;;0.60;0.60;;;8.40;99.90;;;;;;4426539;32;20123;-64
2021/10/25 09:04:56;;;;;;;0.62;0.62;;;8.50;99.90;;;;;;4428373;32;20076;-62
2021/10/25 09:07:22;;;;;;;0.68;0.68;;;8.60;99.90;;;;;;4433322;32;20081;-64
2021/10/25 09:09:47;;;;;;;1.48;1.27;;;8.70;99.90;;;;;;4431020;32;20097;-63
2021/10/25 09:12:15;;;;;;;0.80;0.80;;;8.80;99.90;;;;;;4432206;32;20124;-63
2021/10/25 09:14:40;;;;;;;0.55;0.55;;;9.00;99.90;;;;;;4426163;32;20191;-65
2021/10/25 09:17:09;;;;;;;1.17;0.90;;;9.20;99.90;;;;;;4430889;32;20085;-63
2021/10/25 09:19:36;;;;;;;0.47;0.47;;;9.30;99.90;;;;;;4428779;32;20490;-62
2021/10/25 09:22:15;;;;;;;0.80;0.80;;;9.30;99.90;;;;;;4433846;32;20073;-62
2021/10/25 09:24:50;;;;;;;0.30;0.30;;;9.20;99.90;;;;;;4426295;32;21134;-63
2021/10/25 09:27:28;;;;;;;0.43;0.43;;;9.30;99.90;;;;;;4434651;32;20086;-63
2021/10/25 09:29:57;;;;;;;3.70;1.12;;;9.40;99.90;;;;;;4426434;32;20065;-63
2021/10/25 09:32:30;;;;;;;0.65;0.55;;;9.60;99.90;;;;;;4425676;32;20109;-63
2021/10/25 09:34:59;;;;;;;4.37;1.00;;;9.70;99.90;;;;;;4426499;32;20117;-63
2021/10/25 09:37:30;;;;;;;16.60;0.75;;;9.90;99.90;;;;;;4438290;32;20064;-64
2021/10/25 09:40:03;;;;;;;0.52;0.52;;;10.10;99.90;;;;;;4429666;32;20085;-63
2021/10/25 09:45:30;;;;;;;0.68;0.68;;;10.50;99.90;;;;;;4424803;32;20330;-63
2021/10/25 09:49:09;;;;;;;0.55;0.55;;;10.50;99.90;;;;;;4417715;32;20057;-63
2021/10/25 09:50:54;;;;;;;0.37;0.37;;;10.60;99.90;;;;;;4427011;32;20135;-64
2021/10/25 09:53:29;;;;;;;1.65;0.85;;;10.60;99.90;;;;;;4427250;32;20117;-63
2021/10/25 09:55:55;;;;;;;0.50;0.50;;;10.50;99.90;;;;;;4428179;32;20054;-63
2021/10/25 09:58:23;;;;;;;1.17;0.98;;;10.50;99.90;;;;;;4427130;32;20176;-63
2021/10/25 10:00:49;;;;;;;0.40;0.40;;;10.90;99.90;;;;;;4436102;32;20045;-63
2021/10/25 10:03:15;;;;;;;1.35;0.50;;;10.90;99.90;;;;;;4431394;32;20060;-62
2021/10/25 10:05:42;;;;;;;0.35;0.35;;;10.60;99.90;;;;;;4431380;32;20077;-63
2021/10/25 10:08:09;;;;;;;2.20;1.65;;;10.50;99.90;;;;;;4433345;32;20101;-63
2021/10/25 10:10:35;;;;;;;0.60;0.60;;;10.60;99.90;;;;;;4418981;32;20581;-64
2021/10/25 10:13:02;;;;;;;0.57;0.57;;;10.80;99.90;;;;;;4422485;32;20069;-63
2021/10/25 10:15:30;;;;;;;0.62;0.62;;;10.80;99.90;;;;;;4433969;32;20198;-65
2021/10/25 10:18:00;;;;;;;0.98;0.88;;;10.60;99.90;;;;;;4428661;32;20065;-64
2021/10/25 10:20:30;;;;;;;0.70;0.70;;;10.70;99.90;;;;;;4427728;32;20108;-64
2021/10/25 10:22:58;;;;;;;3.20;1.37;;;10.70;99.90;;;;;;4421591;32;20112;-64
2021/10/25 10:25:47;;;;;;;1.23;1.12;;;10.70;99.90;;;;;;4428024;32;20748;-64
2021/10/25 10:28:14;;;;;;;0.77;0.77;;;10.90;99.90;;;;;;4430425;32;20068;-64
2021/10/25 10:31:03;;;;;;;0.77;0.75;;;11.10;99.90;;;;;;4431854;32;20229;-65
2021/10/25 10:33:32;;;;;;;0.70;0.70;;;11.20;99.90;;;;;;4432421;32;20092;-64
2021/10/25 10:36:10;;;;;;;1.60;0.90;;;11.30;99.90;;;;;;4432254;32;20085;-64
2021/10/25 10:38:44;;;;;;;0.73;0.70;;;11.30;99.90;;;;;;4434659;32;20482;-64
2021/10/25 10:41:11;;;;;;;0.50;0.50;;;11.20;99.90;;;;;;4431540;32;20101;-64
2021/10/25 10:43:36;;;;;;;0.60;0.60;;;11.20;99.90;;;;;;4436135;32;20123;-64
2021/10/25 10:46:09;;;;;;;0.60;0.60;;;11.20;99.90;;;;;;4429794;32;20552;-63
2021/10/25 10:48:37;;;;;;;3.30;1.10;;;11.00;99.90;;;;;;4426925;32;20081;-64
2021/10/25 10:51:10;;;;;;;0.40;0.40;;;10.90;99.90;;;;;;4428722;32;21424;-62
2021/10/25 10:53:42;;;;;;;0.45;0.45;;;10.80;99.90;;;;;;4426269;32;20604;-63
2021/10/25 10:56:21;;;;;;;3.72;1.50;;;10.80;99.90;;;;;;4432253;32;20118;-63
2021/10/25 10:58:51;;;;;;;0.65;0.65;;;10.90;99.90;;;;;;4429066;32;20211;-63
2021/10/25 11:01:17;;;;;;;0.90;0.60;;;11.00;99.90;;;;;;4426856;32;20454;-64
2021/10/25 11:03:42;;;;;;;0.70;0.65;;;11.10;99.90;;;;;;4430704;32;20081;-64
2021/10/25 11:06:16;;;;;;;0.70;0.70;;;10.90;99.90;;;;;;4428980;32;20119;-64
2021/10/25 11:08:44;;;;;;;0.93;0.93;;;10.80;99.90;;;;;;4426997;32;20077;-64
2021/10/25 11:11:16;;;;;;;0.60;0.60;;;10.80;99.90;;;;;;4434692;32;20197;-63
2021/10/25 11:13:50;;;;;;;1.00;0.85;;;10.70;99.90;;;;;;4431621;32;20081;-63
2021/10/25 11:18:49;;;;;;;0.73;0.70;;;10.70;99.90;;;;;;4421051;32;20315;-62
2021/10/25 11:21:21;;;;;;;0.65;0.65;;;10.80;99.90;;;;;;4429080;32;20585;-63
2021/10/25 11:23:51;;;;;;;0.40;0.40;;;10.90;99.90;;;;;;4426356;32;20069;-65
2021/10/25 11:26:24;;;;;;;0.85;0.85;;;11.00;99.90;;;;;;4427071;32;20251;-64
2021/10/25 11:29:12;;;;;;;0.52;0.50;;;11.10;99.90;;;;;;4430061;32;20444;-63
2021/10/25 11:31:42;;;;;;;0.70;0.70;;;11.20;99.90;;;;;;4419297;32;20472;-64
2021/10/25 11:34:19;;;;;;;0.43;0.43;;;11.40;99.90;;;;;;4424555;32;20193;-63
2021/10/25 11:37:00;;;;;;;2.08;1.40;;;11.60;99.90;;;;;;4429002;32;20564;-66
2021/10/25 11:39:39;;;;;;;1.15;0.80;;;11.80;99.90;;;;;;4430581;32;20073;-65
2021/10/25 11:42:08;;;;;;;0.88;0.88;;;11.90;99.90;;;;;;4424394;32;20069;-64
2021/10/25 11:44:34;;;;;;;0.60;0.60;;;11.70;99.90;;;;;;4418622;32;20542;-64
2021/10/25 11:46:59;;;;;;;4.37;2.15;;;11.70;99.90;;;;;;4424225;32;20397;-65
2021/10/25 11:49:26;;;;;;;1.65;0.93;;;11.60;99.90;;;;;;4436594;32;20613;-65
2021/10/25 11:51:55;;;;;;;0.70;0.70;;;11.60;99.90;;;;;;4435235;32;20204;-64
2021/10/25 11:54:21;;;;;;;0.55;0.55;;;11.70;99.90;;;;;;4433655;32;20490;-64
2021/10/25 11:56:52;;;;;;;1.40;0.90;;;11.90;99.90;;;;;;4418110;32;20090;-66
2021/10/25 11:59:18;;;;;;;2.30;1.10;;;12.30;99.90;;;;;;4436204;32;20144;-64
2021/10/25 12:01:46;;;;;;;0.57;0.57;;;12.60;99.90;;;;;;4438292;32;20122;-65
2021/10/25 12:04:12;;;;;;;0.55;0.55;;;12.70;99.90;;;;;;4431635;32;20062;-64
2021/10/25 12:06:38;;;;;;;0.40;0.40;;;12.90;99.90;;;;;;4435264;32;20064;-65
2021/10/25 12:09:07;;;;;;;2.92;1.15;;;13.20;99.90;;;;;;4430050;32;20073;-64
2021/10/25 12:11:45;;;;;;;0.85;0.85;;;13.20;99.90;;;;;;4406059;32;20073;-65
2021/10/25 12:14:11;;;;;;;4.25;0.80;;;12.90;99.90;;;;;;4420359;32;20537;-64
2021/10/25 12:16:39;;;;;;;2.25;0.80;;;12.70;99.90;;;;;;4431737;32;20062;-64
2021/10/25 12:19:06;;;;;;;0.75;0.60;;;12.80;99.90;;;;;;4433631;32;20097;-64
2021/10/25 12:21:34;;;;;;;0.75;0.62;;;12.70;99.90;;;;;;4432728;32;20127;-64
2021/10/25 12:24:01;;;;;;;0.65;0.65;;;12.70;99.90;;;;;;4432394;32;20098;-65
2021/10/25 12:26:27;;;;;;;0.47;0.47;;;12.50;99.90;;;;;;4425509;32;20097;-66
2021/10/25 12:28:53;;;;;;;0.68;0.68;;;12.60;99.90;;;;;;4428369;32;20086;-65
2021/10/25 12:31:20;;;;;;;0.50;0.50;;;12.50;99.90;;;;;;4428188;32;20084;-64
2021/10/25 12:33:50;;;;;;;11.85;0.73;;;12.50;99.90;;;;;;4429537;32;20110;-66
2021/10/25 12:36:19;;;;;;;0.60;0.60;;;12.50;99.90;;;;;;4426267;32;20061;-65
2021/10/25 12:38:49;;;;;;;0.50;0.50;;;12.40;99.90;;;;;;4433174;32;20057;-66
2021/10/25 12:41:15;;;;;;;0.80;0.80;;;12.40;99.90;;;;;;4434958;32;20284;-65
2021/10/25 12:43:45;;;;;;;0.52;0.52;;;12.40;99.90;;;;;;4440120;32;20433;-65
2021/10/25 12:46:16;;;;;;;0.75;0.75;;;12.10;99.90;;;;;;4437385;32;20058;-64
2021/10/25 12:48:45;;;;;;;0.55;0.55;;;12.30;99.90;;;;;;4431341;32;20549;-64
2021/10/25 12:51:10;;;;;;;0.50;0.50;;;12.40;99.90;;;;;;4419811;32;20104;-66
2021/10/25 12:53:43;;;;;;;1.27;1.00;;;12.60;99.90;;;;;;4437057;32;20641;-64
2021/10/25 12:56:08;;;;;;;0.62;0.57;;;12.60;99.90;;;;;;4441463;32;20065;-66
2021/10/25 12:58:34;;;;;;;0.73;0.73;;;12.50;99.90;;;;;;4440836;32;20538;-67
2021/10/25 13:01:15;;;;;;;1.52;0.82;;;12.40;99.90;;;;;;4440382;32;20165;-67
2021/10/25 13:03:47;;;;;;;;;;;12.30;99.90;;;;;;4441006;32;20502;-68
2021/10/25 13:06:14;;;;;;;5.20;1.95;;;12.30;99.90;;;;;;4439826;32;20007;-67
2021/10/25 13:08:40;;;;;;;0.60;0.60;;;12.10;99.90;;;;;;4438947;32;20065;-67
2021/10/25 13:11:09;;;;;;;0.60;0.60;;;12.00;99.90;;;;;;4439207;32;20101;-67
2021/10/25 13:13:35;;;;;;;0.50;0.50;;;12.00;99.90;;;;;;4430735;32;20120;-67
2021/10/25 13:16:02;;;;;;;0.40;0.40;;;12.00;99.90;;;;;;4435506;32;20104;-67
2021/10/25 13:18:28;;;;;;;0.62;0.62;;;12.00;99.90;;;;;;4439309;32;20526;-68
2021/10/25 13:20:54;;;;;;;0.55;0.55;;;12.10;99.90;;;;;;4438409;32;20077;-68
2021/10/25 13:23:22;;;;;;;2.50;1.05;;;12.10;99.90;;;;;;4434818;32;20234;-68
2021/10/25 13:25:49;;;;;;;4.65;0.85;;;12.10;99.90;;;;;;4437749;32;20202;-68
2021/10/25 13:28:15;;;;;;;0.68;0.68;;;12.10;99.90;;;;;;4437675;32;20259;-68
2021/10/25 13:30:40;;;;;;;6.43;0.85;;;12.20;99.90;;;;;;4440750;32;20081;-68
2021/10/25 13:33:06;;;;;;;0.65;0.65;;;12.30;99.90;;;;;;4440704;32;20085;-67
2021/10/25 13:35:32;;;;;;;1.27;1.08;;;12.20;99.90;;;;;;4437705;32;20125;-67
2021/10/25 13:37:58;;;;;;;1.40;1.25;;;12.10;99.90;;;;;;4426777;32;20591;-67
2021/10/25 13:40:28;;;;;;;7.22;0.95;;;12.10;99.90;;;;;;4441191;32;20057;-67
2021/10/25 13:42:56;;;;;;;3.53;0.82;;;12.10;99.90;;;;;;4434702;32;20109;-68
2021/10/25 13:45:23;;;;;;;0.62;0.57;;;12.00;99.90;;;;;;4441715;32;20433;-67
2021/10/25 13:47:49;;;;;;;1.58;1.08;;;12.00;99.90;;;;;;4441475;32;20065;-67
2021/10/25 13:50:16;;;;;;;0.80;0.70;;;11.90;99.90;;;;;;4441621;32;20392;-68
2021/10/25 13:52:42;;;;;;;1.12;1.02;;;11.90;99.90;;;;;;4435155;32;20427;-66
2021/10/25 13:55:08;;;;;;;1.65;1.02;;;11.90;99.90;;;;;;4439211;32;20078;-66
2021/10/25 13:57:38;;;;;;;2.45;0.57;;;11.90;99.90;;;;;;4441772;32;20081;-67
2021/10/25 14:00:07;;;;;;;0.45;0.45;;;11.80;99.90;;;;;;4439307;32;20081;-66
2021/10/25 14:02:33;;;;;;;2.50;1.95;;;11.80;99.90;;;;;;4439629;32;20465;-67
2021/10/25 14:04:59;;;;;;;2.50;0.85;;;11.90;99.90;;;;;;4442619;32;20068;-66
2021/10/25 14:07:31;;;;;;;7.47;0.85;;;11.90;99.90;;;;;;4443444;32;20119;-67
2021/10/25 14:10:03;;;;;;;0.47;0.47;;;11.80;99.90;;;;;;4429414;32;20061;-66
2021/10/25 14:12:30;;;;;;;0.62;0.62;;;11.70;99.90;;;;;;4442043;32;20089;-66
2021/10/25 14:17:41;;;;;;;0.40;0.40;;;11.70;99.90;;;;;;4433557;32;20076;-66
2021/10/25 14:20:07;;;;;;;0.60;0.60;;;11.70;99.90;;;;;;4435939;32;20825;-66
2021/10/25 14:22:33;;;;;;;4.47;1.77;;;11.80;99.90;;;;;;4444035;32;20068;-66
2021/10/25 14:24:59;;;;;;;0.70;0.70;;;11.80;99.90;;;;;;4441672;32;20066;-66
2021/10/25 14:27:24;;;;;;;0.62;0.55;;;11.80;99.90;;;;;;4440899;32;20084;-66
2021/10/25 14:29:50;;;;;;;4.85;0.90;;;11.80;99.90;;;;;;4446646;32;20084;-66
2021/10/25 14:32:16;;;;;;;0.75;0.65;;;11.80;99.90;;;;;;4429227;32;20624;-66
2021/10/25 14:34:41;;;;;;;0.57;0.57;;;11.80;99.90;;;;;;4424154;32;20585;-66
2021/10/25 14:37:07;;;;;;;3.55;1.27;;;11.80;99.90;;;;;;4441129;32;20084;-66
2021/10/25 14:39:40;;;;;;;0.75;0.75;;;11.80;99.90;;;;;;4445211;32;20069;-66
2021/10/25 14:42:24;;;;;;;0.50;0.50;;;11.90;99.90;;;;;;4436234;32;20081;-66
2021/10/25 14:44:58;;;;;;;0.82;0.82;;;11.80;99.90;;;;;;4451872;32;20412;-66
2021/10/25 14:53:32;;;;;;;1.62;0.98;;;11.70;99.90;;;;;;4430058;32;20576;-66
2021/10/25 14:55:46;;;;;;;1.00;0.80;;;11.70;99.90;;;;;;4432910;32;20551;-66
2021/10/25 14:58:12;;;;;;;0.80;0.80;;;11.70;99.90;;;;;;4427073;32;20236;-66
2021/10/25 15:00:40;;;;;;;0.37;0.37;;;11.70;99.90;;;;;;4442834;32;20201;-66
2021/10/25 15:03:06;;;;;;;0.68;0.68;;;11.60;99.90;;;;;;4435790;32;20061;-66
2021/10/25 15:05:32;;;;;;;0.50;0.50;;;11.60;99.90;;;;;;4448799;32;20193;-66
2021/10/25 15:07:57;;;;;;;1.70;1.05;;;11.60;99.90;;;;;;4444454;32;20073;-65
2021/10/25 15:10:23;;;;;;;0.85;0.70;;;11.60;99.90;;;;;;4446328;32;20412;-65
2021/10/25 15:12:48;;;;;;;1.67;0.98;;;11.60;99.90;;;;;;4447384;32;20088;-65
2021/10/25 15:15:14;;;;;;;0.70;0.70;;;11.50;99.90;;;;;;4448077;32;20506;-65
2021/10/25 15:17:42;;;;;;;0.60;0.60;;;11.40;99.90;;;;;;4444087;32;20073;-65
2021/10/25 15:20:08;;;;;;;0.50;0.50;;;11.30;99.90;;;;;;4443508;32;20526;-65
2021/10/25 15:22:34;;;;;;;0.57;0.57;;;11.30;99.90;;;;;;4433045;32;20061;-65
2021/10/25 15:25:00;;;;;;;4.85;1.35;;;11.10;99.90;;;;;;4444471;32;20085;-65
2021/10/25 15:27:28;;;;;;;1.30;1.00;;;11.10;99.90;;;;;;4453732;32;20086;-65
2021/10/25 15:29:55;;;;;;;0.75;0.75;;;11.00;99.90;;;;;;4443101;32;20069;-66
2021/10/25 15:32:28;;;;;;;0.68;0.68;;;11.00;99.90;;;;;;4441878;32;20072;-66
2021/10/25 15:34:55;;;;;;;0.65;0.65;;;10.90;99.90;;;;;;4441441;32;20193;-66
2021/10/25 15:37:24;;;;;;;0.52;0.52;;;10.90;99.90;;;;;;4440053;32;20116;-66
2021/10/25 15:39:49;;;;;;;2.92;0.68;;;10.80;99.90;;;;;;4441657;32;20064;-66
2021/10/25 15:42:17;;;;;;;0.50;0.50;;;10.70;99.90;;;;;;4438664;32;20518;-66
2021/10/25 15:44:44;;;;;;;0.65;0.65;;;10.70;99.90;;;;;;4443213;32;20498;-66
2021/10/25 15:47:12;;;;;;;2.00;1.37;;;10.60;99.90;;;;;;4442544;32;20131;-66
2021/10/25 15:49:39;;;;;;;0.57;0.57;;;10.50;99.90;;;;;;4442885;32;20081;-66
2021/10/25 15:52:07;;;;;;;0.70;0.70;;;10.40;99.90;;;;;;4443798;32;20092;-66
2021/10/25 15:54:33;;;;;;;0.90;0.70;;;10.30;99.90;;;;;;4441562;32;20108;-66
2021/10/25 15:56:59;;;;;;;7.32;0.80;;;10.30;99.90;;;;;;4441393;32;20127;-66
2021/10/25 15:59:25;;;;;;;7.10;1.00;;;10.20;99.90;;;;;;4442323;32;20096;-66
2021/10/25 16:01:50;;;;;;;3.70;1.05;;;10.20;99.90;;;;;;4443888;32;20503;-66
2021/10/25 16:04:16;;;;;;;0.65;0.62;;;10.10;99.90;;;;;;4443554;32;20061;-66
2021/10/25 16:06:42;;;;;;;0.60;0.60;;;10.00;99.90;;;;;;4443937;32;20607;-66
2021/10/25 16:09:08;;;;;;;0.55;0.55;;;10.00;99.90;;;;;;4444516;32;20735;-66
2021/10/25 16:11:35;;;;;;;0.70;0.70;;;10.00;99.90;;;;;;4444978;32;20086;-66
2021/10/25 16:14:01;;;;;;;1.62;0.75;;;9.90;99.90;;;;;;4430418;32;20513;-65
2021/10/25 16:16:26;;;;;;;0.50;0.50;;;9.70;99.90;;;;;;4442274;32;20089;-66
2021/10/25 16:18:52;;;;;;;0.62;0.62;;;9.60;99.90;;;;;;4443353;32;20061;-66
2021/10/25 16:21:18;;;;;;;3.05;1.20;;;9.60;99.90;;;;;;4440889;32;20102;-66
2021/10/25 16:23:44;;;;;;;0.62;0.62;;;9.60;99.90;;;;;;4428468;32;20058;-66
2021/10/25 16:26:10;;;;;;;2.17;0.93;;;9.50;99.90;;;;;;4428721;32;20073;-66
2021/10/25 16:28:35;;;;;;;0.50;0.50;;;9.50;99.90;;;;;;4428932;32;20526;-66
2021/10/25 16:31:01;;;;;;;0.60;0.60;;;9.40;99.90;;;;;;4428507;32;20124;-66
2021/10/25 16:33:27;;;;;;;0.80;0.70;;;9.40;99.90;;;;;;4433705;32;20072;-66
2021/10/25 16:35:53;;;;;;;12.45;2.42;;;9.40;99.90;;;;;;4443203;32;20081;-66
2021/10/25 16:38:19;;;;;;;2.05;1.00;;;9.40;99.90;;;;;;4442628;32;20260;-66
2021/10/25 16:40:46;;;;;;;0.80;0.80;;;9.30;99.90;;;;;;4442035;32;20078;-66
2021/10/25 16:43:14;;;;;;;3.35;1.08;;;9.30;99.90;;;;;;4427365;32;20066;-66
2021/10/25 16:45:42;;;;;;;0.80;0.80;;;9.30;99.90;;;;;;4424468;32;20498;-66
2021/10/25 16:48:11;;;;;;;1.12;0.77;;;9.30;99.90;;;;;;4443114;32;20061;-66
2021/10/25 16:50:38;;;;;;;1.17;0.70;;;9.20;99.90;;;;;;4441664;32;20069;-66
2021/10/25 16:53:14;;;;;;;1.42;1.30;;;9.20;99.90;;;;;;4443250;32;20553;-66
2021/10/25 16:55:53;;;;;;;0.90;0.90;;;9.10;99.90;;;;;;4441733;32;20061;-66
2021/10/25 17:04:06;;;;;;;1.08;0.93;;;9.10;99.90;;;;;;4442216;32;20065;-66
2021/10/25 17:06:41;;;;;;;0.50;0.50;;;8.90;99.90;;;;;;4442653;32;20088;-66
2021/10/25 17:09:38;;;;;;;0.98;0.75;;;8.90;99.90;;;;;;4442139;32;20138;-66
2021/10/25 17:11:54;;;;;;;3.37;1.55;;;8.90;99.90;;;;;;4442384;32;20097;-66
2021/10/25 17:14:21;;;;;;;0.70;0.70;;;8.90;99.90;;;;;;4443979;32;20297;-66
2021/10/25 17:16:48;;;;;;;0.50;0.50;;;9.00;99.90;;;;;;4443286;32;20068;-67
2021/10/25 17:19:13;;;;;;;0.70;0.70;;;8.90;99.90;;;;;;4443147;32;20085;-66
2021/10/25 17:21:40;;;;;;;0.80;0.80;;;8.90;99.90;;;;;;4443067;32;20066;-66
2021/10/25 17:24:06;;;;;;;4.20;2.25;;;8.70;99.90;;;;;;4442738;32;20487;-66
2021/10/25 17:26:37;;;;;;;0.95;0.95;;;8.60;99.90;;;;;;4442727;32;20065;-67
2021/10/25 17:29:03;;;;;;;4.10;1.92;;;8.60;99.90;;;;;;4443216;32;20081;-66
2021/10/25 17:31:29;;;;;;;4.45;2.03;;;8.60;99.90;;;;;;4443633;32;20448;-65
2021/10/25 17:33:55;;;;;;;8.85;2.12;;;8.50;99.90;;;;;;4434539;32;20065;-66
2021/10/25 17:36:21;;;;;;;1.40;1.30;;;8.50;99.90;;;;;;4430439;32;20060;-65
2021/10/25 17:38:46;;;;;;;4.75;1.92;;;8.50;99.90;;;;;;4443919;32;20057;-66
2021/10/25 17:41:14;;;;;;;1.60;1.35;;;8.50;99.90;;;;;;4441068;32;20480;-65
2021/10/25 17:43:40;;;;;;;1.35;1.12;;;8.40;99.90;;;;;;4428795;32;20065;-66
2021/10/25 17:46:06;;;;;;;0.90;0.90;;;8.30;99.90;;;;;;4431134;32;20587;-65
2021/10/25 17:48:31;;;;;;;0.62;0.62;;;8.30;99.90;;;;;;4429346;32;20131;-65
2021/10/25 17:50:57;;;;;;;1.17;0.98;;;8.30;99.90;;;;;;4431008;32;20424;-66
2021/10/25 17:53:25;;;;;;;0.50;0.50;;;8.50;99.90;;;;;;4430327;32;20069;-66
2021/10/25 17:55:50;;;;;;;0.50;0.50;;;8.50;99.90;;;;;;4429963;32;20424;-66
2021/10/25 17:58:18;;;;;;;0.60;0.60;;;8.50;99.90;;;;;;4431217;32;20058;-66
2021/10/25 18:00:44;;;;;;;3.90;0.98;;;8.50;99.90;;;;;;4430315;32;20142;-65
2021/10/25 18:03:11;;;;;;;1.23;1.12;;;8.50;99.90;;;;;;4430350;32;20472;-66
2021/10/25 18:05:37;;;;;;;1.30;1.20;;;8.40;99.90;;;;;;4429528;32;20561;-66
2021/10/25 18:08:10;;;;;;;1.48;1.00;;;8.20;99.90;;;;;;4429590;32;20069;-65
2021/10/25 18:10:39;;;;;;;3.25;0.98;;;8.30;99.90;;;;;;4428175;32;20066;-66
2021/10/25 18:13:05;;;;;;;4.85;1.00;;;8.30;99.90;;;;;;4429043;32;20078;-66
2021/10/25 18:15:30;;;;;;;1.10;1.08;;;8.50;99.90;;;;;;4430744;32;20515;-65
2021/10/25 18:17:56;;;;;;;0.70;0.70;;;8.50;99.90;;;;;;4430931;32;20073;-65
2021/10/25 18:20:22;;;;;;;1.27;0.90;;;8.60;99.90;;;;;;4429850;32;20077;-67
2021/10/25 18:22:47;;;;;;;1.35;0.88;;;8.60;99.90;;;;;;4430620;32;20061;-65
2021/10/25 18:25:13;;;;;;;0.80;0.80;;;8.60;99.90;;;;;;4429841;32;20073;-66
2021/10/25 18:27:39;;;;;;;4.15;1.60;;;8.40;99.90;;;;;;4430374;32;20065;-65